Time,TemperatureF,DewpointF,PressureIn,WindDirection,WindDirectionDegrees,WindSpeedMPH,WindSpeedGustMPH,Humidity,HourlyPrecipIn,Conditions,Clouds,dailyrainin,SoftwareType,DateUTC
2013-06-07 00:02:00,51.0,46.0,-100.00,North,-999,0.0,0.0,81,-99.99,,,-99.99,,2013-06-07 07:02:00,
2013-06-07 00:12:00,51.0,46.0,-100.00,North,-999,0.0,0.0,81,-99.99,,,-99.99,,2013-06-07 07:12:00,
2013-06-07 00:22:00,50.0,45.0,-100.00,SW,225,0.0,1.0,82,-99.99,,,-99.99,,2013-06-07 07:22:00,
2013-06-07 00:32:00,50.0,45.0,-100.00,North,-999,0.0,0.0,83,-99.99,,,-99.99,,2013-06-07 07:32:00,
2013-06-07 00:42:00,50.0,45.0,-100.00,North,-999,0.0,0.0,83,-99.99,,,-99.99,,2013-06-07 07:42:00,
2013-06-07 00:52:00,50.0,45.0,-100.00,North,-999,0.0,0.0,84,-99.99,,,-99.99,,2013-06-07 07:52:00,
2013-06-07 01:02:00,50.0,45.0,-100.00,North,-999,0.0,0.0,84,-99.99,,,-99.99,,2013-06-07 08:02:00,
2013-06-07 01:12:00,50.0,45.0,-100.00,North,-999,0.0,0.0,84,-99.99,,,-99.99,,2013-06-07 08:12:00,
2013-06-07 01:22:00,49.0,45.0,-100.00,North,-999,0.0,0.0,85,-99.99,,,-99.99,,2013-06-07 08:22:00,
2013-06-07 01:32:00,48.0,44.0,-100.00,SW,225,1.0,1.0,86,-99.99,,,-99.99,,2013-06-07 08:32:00,
2013-06-07 01:42:00,48.0,44.0,-100.00,SW,225,1.0,1.0,86,-99.99,,,-99.99,,2013-06-07 08:42:00,
2013-06-07 01:52:00,48.0,45.0,-100.00,North,-999,0.0,0.0,87,-99.99,,,-99.99,,2013-06-07 08:52:00,
2013-06-07 02:02:00,48.0,44.0,-100.00,North,-999,0.0,0.0,87,-99.99,,,-99.99,,2013-06-07 09:02:00,
2013-06-07 02:12:00,48.0,44.0,-100.00,North,-999,0.0,0.0,87,-99.99,,,-99.99,,2013-06-07 09:12:00,
2013-06-07 02:22:00,48.0,44.0,-100.00,North,-999,0.0,0.0,88,-99.99,,,-99.99,,2013-06-07 09:22:00,
2013-06-07 02:32:00,48.0,45.0,-100.00,SW,225,3.0,5.0,88,-99.99,,,-99.99,,2013-06-07 09:32:00,
2013-06-07 02:43:00,48.0,45.0,-100.00,SW,225,3.0,5.0,88,-99.99,,,-99.99,,2013-06-07 09:43:00,
2013-06-07 02:53:00,49.0,45.0,-100.00,West,270,1.0,3.0,87,-99.99,,,-99.99,,2013-06-07 09:53:00,
2013-06-07 03:02:00,49.0,45.0,-100.00,SW,225,2.0,3.0,87,-99.99,,,-99.99,,2013-06-07 10:02:00,
2013-06-07 03:12:00,49.0,45.0,-100.00,SW,225,2.0,3.0,87,-99.99,,,-99.99,,2013-06-07 10:12:00,
2013-06-07 03:22:00,50.0,45.0,-100.00,West,270,2.0,4.0,82,-99.99,,,-99.99,,2013-06-07 10:22:00,
2013-06-07 03:32:00,50.0,45.0,-100.00,SW,225,3.0,4.0,82,-99.99,,,-99.99,,2013-06-07 10:32:00,
2013-06-07 03:42:00,50.0,45.0,-100.00,SW,225,3.0,4.0,82,-99.99,,,-99.99,,2013-06-07 10:42:00,
2013-06-07 03:53:00,49.0,44.0,-100.00,SW,225,2.0,3.0,83,-99.99,,,-99.99,,2013-06-07 10:53:00,
2013-06-07 04:02:00,51.0,44.0,-100.00,West,270,3.0,4.0,78,-99.99,,,-99.99,,2013-06-07 11:02:00,
2013-06-07 04:12:00,51.0,44.0,-100.00,West,270,3.0,4.0,78,-99.99,,,-99.99,,2013-06-07 11:12:00,
2013-06-07 04:22:00,50.0,43.0,-100.00,West,270,1.0,3.0,77,-99.99,,,-99.99,,2013-06-07 11:22:00,
2013-06-07 04:32:00,50.0,43.0,-100.00,West,270,1.0,2.0,79,-99.99,,,-99.99,,2013-06-07 11:32:00,
2013-06-07 04:42:00,50.0,43.0,-100.00,West,270,1.0,2.0,79,-99.99,,,-99.99,,2013-06-07 11:42:00,
2013-06-07 04:52:00,49.0,43.0,-100.00,North,-999,0.0,0.0,82,-99.99,,,-99.99,,2013-06-07 11:52:00,
2013-06-07 05:02:00,48.0,43.0,-100.00,North,-999,0.0,0.0,84,-99.99,,,-99.99,,2013-06-07 12:02:00,
2013-06-07 05:12:00,48.0,43.0,-100.00,North,-999,0.0,0.0,84,-99.99,,,-99.99,,2013-06-07 12:12:00,
2013-06-07 05:22:00,47.0,43.0,-100.00,North,-999,0.0,0.0,85,-99.99,,,-99.99,,2013-06-07 12:22:00,
2013-06-07 05:32:00,47.0,43.0,-100.00,North,-999,0.0,0.0,86,-99.99,,,-99.99,,2013-06-07 12:32:00,
2013-06-07 05:42:00,47.0,43.0,-100.00,North,-999,0.0,0.0,86,-99.99,,,-99.99,,2013-06-07 12:42:00,
2013-06-07 05:52:00,47.0,43.0,-100.00,North,-999,0.0,0.0,87,-99.99,,,-99.99,,2013-06-07 12:52:00,
2013-06-07 06:02:00,47.0,43.0,-100.00,North,-999,0.0,0.0,87,-99.99,,,-99.99,,2013-06-07 13:02:00,
2013-06-07 06:12:00,47.0,43.0,-100.00,North,-999,0.0,0.0,87,-99.99,,,-99.99,,2013-06-07 13:12:00,
2013-06-07 06:22:00,47.0,43.0,-100.00,North,-999,0.0,0.0,87,-99.99,,,-99.99,,2013-06-07 13:22:00,
2013-06-07 06:32:00,46.0,43.0,-100.00,North,-999,0.0,0.0,88,-99.99,,,-99.99,,2013-06-07 13:32:00,
2013-06-07 06:43:00,46.0,43.0,-100.00,North,-999,0.0,0.0,88,-99.99,,,-99.99,,2013-06-07 13:43:00,
2013-06-07 06:52:00,46.0,43.0,-100.00,North,-999,0.0,0.0,89,-99.99,,,-99.99,,2013-06-07 13:52:00,
2013-06-07 07:02:00,47.0,44.0,-100.00,North,-999,0.0,0.0,89,-99.99,,,-99.99,,2013-06-07 14:02:00,
2013-06-07 07:12:00,47.0,44.0,-100.00,North,-999,0.0,0.0,89,-99.99,,,-99.99,,2013-06-07 14:12:00,
2013-06-07 07:22:00,47.0,44.0,-100.00,North,-999,0.0,0.0,89,-99.99,,,-99.99,,2013-06-07 14:22:00,
2013-06-07 07:32:00,48.0,45.0,-100.00,North,-999,0.0,0.0,89,-99.99,,,-99.99,,2013-06-07 14:32:00,
2013-06-07 07:42:00,48.0,45.0,-100.00,North,-999,0.0,0.0,89,-99.99,,,-99.99,,2013-06-07 14:42:00,
2013-06-07 07:52:00,48.0,45.0,-100.00,North,-999,0.0,0.0,89,-99.99,,,-99.99,,2013-06-07 14:52:00,
2013-06-07 08:02:00,50.0,46.0,-100.00,North,-999,0.0,0.0,86,-99.99,,,-99.99,,2013-06-07 15:02:00,
2013-06-07 08:12:00,50.0,46.0,-100.00,North,-999,0.0,0.0,86,-99.99,,,-99.99,,2013-06-07 15:12:00,
2013-06-07 08:22:00,51.0,46.0,-100.00,North,-999,0.0,0.0,82,-99.99,,,-99.99,,2013-06-07 15:22:00,
2013-06-07 08:33:00,52.0,46.0,-100.00,SW,225,2.0,3.0,79,-99.99,,,-99.99,,2013-06-07 15:33:00,
2013-06-07 08:43:00,52.0,46.0,-100.00,SW,225,2.0,3.0,79,-99.99,,,-99.99,,2013-06-07 15:43:00,
2013-06-07 08:53:00,54.0,46.0,-100.00,SW,225,1.0,1.0,76,-99.99,,,-99.99,,2013-06-07 15:53:00,
2013-06-07 09:03:00,54.0,47.0,-100.00,SW,225,1.0,2.0,76,-99.99,,,-99.99,,2013-06-07 16:03:00,
2013-06-07 09:12:00,54.0,47.0,-100.00,SW,225,1.0,2.0,76,-99.99,,,-99.99,,2013-06-07 16:12:00,
2013-06-07 09:22:00,56.0,46.0,-100.00,SW,225,0.0,1.0,70,-99.99,,,-99.99,,2013-06-07 16:22:00,
2013-06-07 09:33:00,57.0,45.0,-100.00,West,270,3.0,4.0,63,-99.99,,,-99.99,,2013-06-07 16:33:00,
2013-06-07 09:43:00,57.0,45.0,-100.00,West,270,3.0,4.0,63,-99.99,,,-99.99,,2013-06-07 16:43:00,
2013-06-07 09:53:00,59.0,43.0,-100.00,SW,225,1.0,3.0,55,-99.99,,,-99.99,,2013-06-07 16:53:00,
2013-06-07 10:02:00,61.0,40.0,-100.00,West,270,1.0,3.0,46,-99.99,,,-99.99,,2013-06-07 17:02:00,
2013-06-07 10:12:00,61.0,40.0,-100.00,West,270,1.0,3.0,46,-99.99,,,-99.99,,2013-06-07 17:12:00,
2013-06-07 10:22:00,62.0,36.0,-100.00,SW,225,3.0,4.0,38,-99.99,,,-99.99,,2013-06-07 17:22:00,
2013-06-07 10:32:00,64.0,34.0,-100.00,NW,315,1.0,1.0,33,-99.99,,,-99.99,,2013-06-07 17:32:00,
2013-06-07 10:42:00,64.0,34.0,-100.00,NW,315,1.0,1.0,33,-99.99,,,-99.99,,2013-06-07 17:42:00,
2013-06-07 10:52:00,66.0,37.0,-100.00,West,270,1.0,1.0,35,-99.99,,,-99.99,,2013-06-07 17:52:00,
2013-06-07 11:03:00,67.0,37.0,-100.00,West,270,2.0,3.0,33,-99.99,,,-99.99,,2013-06-07 18:03:00,
2013-06-07 11:14:00,67.0,37.0,-100.00,West,270,2.0,3.0,33,-99.99,,,-99.99,,2013-06-07 18:14:00,
2013-06-07 11:23:00,68.0,33.0,-100.00,SW,225,2.0,3.0,27,-99.99,,,-99.99,,2013-06-07 18:23:00,
2013-06-07 11:34:00,66.0,36.0,-100.00,West,270,0.0,1.0,33,-99.99,,,-99.99,,2013-06-07 18:34:00,
2013-06-07 11:43:00,66.0,36.0,-100.00,West,270,0.0,1.0,33,-99.99,,,-99.99,,2013-06-07 18:43:00,
2013-06-07 11:58:00,67.0,39.0,-100.00,West,270,0.0,2.0,35,-99.99,,,-99.99,,2013-06-07 18:58:00,
2013-06-07 12:13:00,70.0,39.0,-100.00,SW,225,3.0,6.0,32,-99.99,,,-99.99,,2013-06-07 19:13:00,
2013-06-07 12:34:00,70.0,43.0,-100.00,SW,225,6.0,11.0,38,-99.99,,,-99.99,,2013-06-07 19:34:00,
2013-06-07 12:45:00,70.0,43.0,-100.00,SW,225,6.0,11.0,38,-99.99,,,-99.99,,2013-06-07 19:45:00,
2013-06-07 12:57:00,68.0,40.0,-100.00,SW,225,8.0,12.0,35,-99.99,,,-99.99,,2013-06-07 19:57:00,
2013-06-07 13:03:00,68.0,37.0,-100.00,SW,225,6.0,10.0,32,-99.99,,,-99.99,,2013-06-07 20:03:00,
2013-06-07 13:23:00,68.0,37.0,-100.00,SW,225,3.0,8.0,33,-99.99,,,-99.99,,2013-06-07 20:23:00,
2013-06-07 13:35:00,68.0,39.0,-100.00,SW,225,6.0,11.0,34,-99.99,,,-99.99,,2013-06-07 20:35:00,
2013-06-07 13:44:00,68.0,39.0,-100.00,SW,225,6.0,11.0,34,-99.99,,,-99.99,,2013-06-07 20:44:00,
2013-06-07 13:57:00,70.0,41.0,-100.00,West,270,3.0,4.0,36,-99.99,,,-99.99,,2013-06-07 20:57:00,
2013-06-07 14:04:00,69.0,42.0,-100.00,SW,225,4.0,6.0,38,-99.99,,,-99.99,,2013-06-07 21:04:00,
2013-06-07 14:25:00,70.0,44.0,-100.00,West,270,3.0,6.0,39,-99.99,,,-99.99,,2013-06-07 21:25:00,
2013-06-07 14:44:00,70.0,45.0,-100.00,West,270,3.0,9.0,41,-99.99,,,-99.99,,2013-06-07 21:44:00,
2013-06-07 14:59:00,71.0,47.0,-100.00,West,270,5.0,8.0,42,-99.99,,,-99.99,,2013-06-07 21:59:00,
2013-06-07 15:07:00,70.0,47.0,-100.00,West,270,6.0,8.0,44,-99.99,,,-99.99,,2013-06-07 22:07:00,
2013-06-07 15:17:00,70.0,47.0,-100.00,West,270,6.0,8.0,44,-99.99,,,-99.99,,2013-06-07 22:17:00,
2013-06-07 15:24:00,71.0,48.0,-100.00,West,270,3.0,8.0,44,-99.99,,,-99.99,,2013-06-07 22:24:00,
2013-06-07 15:33:00,70.0,49.0,-100.00,SW,225,5.0,8.0,47,-99.99,,,-99.99,,2013-06-07 22:33:00,
2013-06-07 15:44:00,70.0,49.0,-100.00,SW,225,5.0,8.0,47,-99.99,,,-99.99,,2013-06-07 22:44:00,
2013-06-07 15:59:00,70.0,51.0,-100.00,SW,225,2.0,3.0,50,-99.99,,,-99.99,,2013-06-07 22:59:00,
2013-06-07 16:05:00,71.0,51.0,-100.00,NW,315,3.0,4.0,50,-99.99,,,-99.99,,2013-06-07 23:05:00,
2013-06-07 16:16:00,71.0,51.0,-100.00,NW,315,3.0,4.0,50,-99.99,,,-99.99,,2013-06-07 23:16:00,
2013-06-07 16:26:00,69.0,52.0,-100.00,SW,225,7.0,12.0,54,-99.99,,,-99.99,,2013-06-07 23:26:00,
2013-06-07 16:34:00,69.0,52.0,-100.00,West,270,3.0,5.0,55,-99.99,,,-99.99,,2013-06-07 23:34:00,
2013-06-07 17:00:00,69.0,52.0,-100.00,SW,225,4.0,6.0,54,-99.99,,,-99.99,,2013-06-08 00:00:00,
2013-06-07 17:05:00,68.0,51.0,-100.00,West,270,3.0,4.0,55,-99.99,,,-99.99,,2013-06-08 00:05:00,
2013-06-07 17:14:00,68.0,51.0,-100.00,West,270,3.0,4.0,55,-99.99,,,-99.99,,2013-06-08 00:14:00,
2013-06-07 17:26:00,69.0,51.0,-100.00,West,270,3.0,4.0,54,-99.99,,,-99.99,,2013-06-08 00:26:00,
2013-06-07 17:33:00,66.0,49.0,-100.00,West,270,4.0,5.0,55,-99.99,,,-99.99,,2013-06-08 00:33:00,
2013-06-07 17:44:00,66.0,49.0,-100.00,West,270,4.0,5.0,55,-99.99,,,-99.99,,2013-06-08 00:44:00,
2013-06-07 17:57:00,66.0,49.0,-100.00,West,270,2.0,3.0,55,-99.99,,,-99.99,,2013-06-08 00:57:00,
2013-06-07 18:03:00,64.0,49.0,-100.00,West,270,4.0,6.0,58,-99.99,,,-99.99,,2013-06-08 01:03:00,
2013-06-07 18:15:00,64.0,49.0,-100.00,West,270,4.0,6.0,58,-99.99,,,-99.99,,2013-06-08 01:15:00,
2013-06-07 18:26:00,63.0,50.0,-100.00,West,270,2.0,4.0,62,-99.99,,,-99.99,,2013-06-08 01:26:00,
2013-06-07 18:35:00,63.0,50.0,-100.00,West,270,4.0,6.0,63,-99.99,,,-99.99,,2013-06-08 01:35:00,
2013-06-07 18:43:00,63.0,50.0,-100.00,West,270,4.0,6.0,63,-99.99,,,-99.99,,2013-06-08 01:43:00,
2013-06-07 18:58:00,63.0,51.0,-100.00,West,270,4.0,6.0,65,-99.99,,,-99.99,,2013-06-08 01:58:00,
2013-06-07 19:05:00,63.0,51.0,-100.00,West,270,3.0,5.0,67,-99.99,,,-99.99,,2013-06-08 02:05:00,
2013-06-07 19:13:00,63.0,51.0,-100.00,West,270,3.0,5.0,67,-99.99,,,-99.99,,2013-06-08 02:13:00,
2013-06-07 19:33:00,61.0,51.0,-100.00,West,270,1.0,1.0,70,-99.99,,,-99.99,,2013-06-08 02:33:00,
2013-06-07 19:58:00,60.0,52.0,-100.00,West,270,1.0,1.0,73,-99.99,,,-99.99,,2013-06-08 02:58:00,
2013-06-07 20:06:00,60.0,52.0,-100.00,SW,225,2.0,3.0,74,-99.99,,,-99.99,,2013-06-08 03:06:00,
2013-06-07 20:15:00,60.0,52.0,-100.00,SW,225,2.0,3.0,74,-99.99,,,-99.99,,2013-06-08 03:15:00,
2013-06-07 20:25:00,59.0,52.0,-100.00,SW,225,2.0,3.0,78,-99.99,,,-99.99,,2013-06-08 03:25:00,
2013-06-07 20:34:00,59.0,52.0,-100.00,West,270,3.0,4.0,78,-99.99,,,-99.99,,2013-06-08 03:34:00,
2013-06-07 21:03:00,57.0,52.0,-100.00,West,270,3.0,5.0,82,-99.99,,,-99.99,,2013-06-08 04:03:00,
2013-06-07 21:12:00,57.0,52.0,-100.00,West,270,3.0,5.0,82,-99.99,,,-99.99,,2013-06-08 04:12:00,
2013-06-07 21:23:00,57.0,52.0,-100.00,West,270,3.0,4.0,84,-99.99,,,-99.99,,2013-06-08 04:23:00,
2013-06-07 21:33:00,56.0,52.0,-100.00,West,270,5.0,8.0,85,-99.99,,,-99.99,,2013-06-08 04:33:00,
2013-06-07 21:42:00,56.0,52.0,-100.00,West,270,5.0,8.0,85,-99.99,,,-99.99,,2013-06-08 04:42:00,
2013-06-07 21:53:00,56.0,52.0,-100.00,SW,225,4.0,7.0,85,-99.99,,,-99.99,,2013-06-08 04:53:00,
2013-06-07 22:02:00,56.0,52.0,-100.00,West,270,4.0,6.0,86,-99.99,,,-99.99,,2013-06-08 05:02:00,
2013-06-07 22:12:00,56.0,52.0,-100.00,West,270,4.0,6.0,86,-99.99,,,-99.99,,2013-06-08 05:12:00,
2013-06-07 22:22:00,56.0,52.0,-100.00,SW,225,3.0,4.0,86,-99.99,,,-99.99,,2013-06-08 05:22:00,
2013-06-07 22:32:00,55.0,51.0,-100.00,SW,225,3.0,6.0,86,-99.99,,,-99.99,,2013-06-08 05:32:00,
2013-06-07 22:42:00,55.0,51.0,-100.00,SW,225,3.0,6.0,86,-99.99,,,-99.99,,2013-06-08 05:42:00,
2013-06-07 22:52:00,55.0,51.0,-100.00,West,270,1.0,3.0,86,-99.99,,,-99.99,,2013-06-08 05:52:00,
2013-06-07 23:02:00,55.0,51.0,-100.00,West,270,4.0,8.0,86,-99.99,,,-99.99,,2013-06-08 06:02:00,
2013-06-07 23:12:00,55.0,51.0,-100.00,West,270,4.0,8.0,86,-99.99,,,-99.99,,2013-06-08 06:12:00,
2013-06-07 23:22:00,55.0,50.0,-100.00,West,270,2.0,3.0,86,-99.99,,,-99.99,,2013-06-08 06:22:00,
2013-06-07 23:32:00,54.0,50.0,-100.00,SW,225,1.0,3.0,86,-99.99,,,-99.99,,2013-06-08 06:32:00,
2013-06-07 23:42:00,54.0,50.0,-100.00,SW,225,1.0,3.0,86,-99.99,,,-99.99,,2013-06-08 06:42:00,
2013-06-07 23:52:00,54.0,49.0,-100.00,West,270,3.0,4.0,86,-99.99,,,-99.99,,2013-06-08 06:52:00,